.
WxDataArchive / Data Records for 2009-02-25
2009-02-24 February 2009 2009-02-26

Data Records for Wednesday, 25 February 2009

Time	Temp	Chill	HIndex	Humid	Dewpt	 Wind 	HiWind	WindDir	Rain 	Barom 
-----	----	-----	------	-----	-----	------	------	-------	-----	----- 
00:00	28.2	28.2	28.2	76	21.6	0	2	135	0.00	30.293 
00:05	28.2	28.2	28.2	76	21.6	0	2	135	0.00	30.290 
00:10	28.2	28.2	28.2	76	21.6	0	1	135	0.00	30.291 
00:15	28.1	28.1	28.1	76	21.5	0	2	135	0.00	30.285 
00:20	28.1	28.1	28.1	76	21.5	0	3	135	0.00	30.280 
00:25	28.1	28.1	28.1	76	21.5	0	2	135	0.00	30.280 
00:30	28.2	28.2	28.2	76	21.6	0	2	90	0.00	30.280 
00:35	28.4	28.4	28.4	76	21.8	0	1	90	0.00	30.280 
00:40	28.4	28.4	28.4	76	21.8	0	0	---	0.00	30.280 
00:45	28.2	28.2	28.2	76	21.6	0	0	---	0.00	30.281 
00:50	28.2	28.2	28.2	76	21.6	0	1	90	0.00	30.280 
00:55	28.2	28.2	28.2	76	21.6	0	1	90	0.00	30.279 
01:00	28.2	28.2	28.2	76	21.6	0	1	90	0.00	30.275 
01:05	28.4	28.4	28.4	76	21.8	1	2	135	0.00	30.270 
01:10	28.5	28.5	28.5	75	21.6	1	3	112	0.00	30.264 
01:15	28.7	28.7	28.7	75	21.8	1	4	90	0.00	30.265 
01:20	28.8	28.8	28.8	74	21.6	1	3	112	0.00	30.263 
01:25	29.0	29.0	29.0	74	21.8	1	3	112	0.00	30.263 
01:30	29.0	29.0	29.0	74	21.8	1	4	135	0.00	30.262 
01:35	29.0	29.0	29.0	74	21.8	0	3	135	0.00	30.263 
01:40	29.0	29.0	29.0	74	21.8	1	3	112	0.00	30.263 
01:45	29.1	29.1	29.1	73	21.5	1	3	112	0.00	30.260 
01:50	29.1	29.1	29.1	73	21.5	1	3	112	0.00	30.261 
01:55	29.1	29.1	29.1	73	21.5	1	3	112	0.00	30.262 
02:00	29.1	29.1	29.1	73	21.5	1	3	112	0.00	30.261 
02:05	29.1	29.1	29.1	73	21.5	0	1	112	0.00	30.262 
02:10	29.0	29.0	29.0	73	21.4	0	0	---	0.00	30.263 
02:15	28.8	28.8	28.8	73	21.3	0	1	112	0.00	30.264 
02:20	28.7	28.7	28.7	74	21.5	0	0	---	0.00	30.265 
02:25	28.5	28.5	28.5	74	21.3	0	0	---	0.00	30.271 
02:30	28.4	28.4	28.4	74	21.2	0	1	112	0.00	30.269 
02:35	28.2	28.2	28.2	74	21.0	0	1	112	0.00	30.266 
02:40	28.2	28.2	28.2	74	21.0	0	1	112	0.00	30.264 
02:45	28.1	28.1	28.1	74	20.9	0	0	---	0.00	30.264 
02:50	27.9	27.9	27.9	74	20.7	0	0	---	0.00	30.262 
02:55	27.9	27.9	27.9	75	21.0	0	0	---	0.00	30.262 
03:00	27.9	27.9	27.9	75	21.0	0	1	112	0.00	30.261 
03:05	28.1	28.1	28.1	74	20.9	0	1	112	0.00	30.261 
03:10	28.4	28.4	28.4	74	21.2	0	2	112	0.00	30.260 
03:15	28.7	28.7	28.7	73	21.2	1	3	112	0.00	30.257 
03:20	29.1	29.1	29.1	71	20.9	1	2	112	0.00	30.260 
03:25	29.3	29.3	29.3	71	21.1	0	1	112	0.00	30.258 
03:30	29.3	29.3	29.3	71	21.1	0	1	112	0.00	30.255 
03:35	29.3	29.3	29.3	71	21.1	0	1	112	0.00	30.253 
03:40	29.3	29.3	29.3	70	20.8	0	1	112	0.00	30.250 
03:45	29.3	29.3	29.3	70	20.8	0	1	112	0.00	30.250 
03:50	29.4	29.4	29.4	70	20.8	0	1	112	0.00	30.249 
03:55	29.4	29.4	29.4	70	20.8	0	1	112	0.00	30.248 
04:00	29.3	29.3	29.3	70	20.8	0	0	---	0.00	30.253 
04:05	29.1	29.1	29.1	70	20.6	0	0	---	0.00	30.254 
04:10	28.8	28.8	28.8	70	20.3	0	1	112	0.00	30.252 
04:15	28.7	28.7	28.7	70	20.2	0	1	112	0.00	30.248 
04:20	28.8	28.8	28.8	70	20.3	0	1	112	0.00	30.247 
04:25	28.8	28.8	28.8	69	19.9	0	1	112	0.00	30.247 
04:30	28.8	28.8	28.8	70	20.3	0	0	---	0.00	30.247 
04:35	28.5	28.5	28.5	70	20.0	0	0	---	0.00	30.246 
04:40	28.2	28.2	28.2	71	20.0	0	1	112	0.00	30.245 
04:45	27.9	27.9	27.9	71	19.7	0	1	112	0.00	30.245 
04:50	27.9	27.9	27.9	71	19.7	0	1	112	0.00	30.245 
04:55	27.8	27.8	27.8	72	20.0	0	1	112	0.00	30.243 
05:00	27.6	27.6	27.6	72	19.8	0	0	---	0.00	30.243 
05:05	27.2	27.2	27.2	73	19.7	0	0	---	0.00	30.246 
05:10	26.9	26.9	26.9	73	19.4	0	0	---	0.00	30.246 
05:15	26.6	26.6	26.6	73	19.1	0	0	---	0.00	30.246 
05:20	26.4	26.4	26.4	74	19.3	0	0	---	0.00	30.247 
05:25	26.1	26.1	26.1	74	19.0	0	0	---	0.00	30.247 
05:30	25.8	25.8	25.8	76	19.3	0	0	---	0.00	30.245 
05:35	25.7	25.7	25.7	76	19.2	0	0	---	0.00	30.245 
05:40	25.6	25.6	25.6	76	19.1	0	0	---	0.00	30.248 
05:45	25.4	25.4	25.4	77	19.2	0	0	---	0.00	30.252 
05:50	25.1	25.1	25.1	77	18.9	0	0	---	0.00	30.253 
05:55	24.8	24.8	24.8	77	18.6	0	0	---	0.00	30.255 
06:00	24.5	24.5	24.5	77	18.3	0	0	---	0.00	30.254 
06:05	24.4	24.4	24.4	79	18.8	0	0	---	0.00	30.253 
06:10	24.2	24.2	24.2	79	18.6	0	0	---	0.00	30.255 
06:15	24.1	24.1	24.1	80	18.8	0	0	---	0.00	30.255 
06:20	23.9	23.9	23.9	80	18.6	0	0	---	0.00	30.256 
06:25	23.8	23.8	23.8	80	18.5	0	0	---	0.00	30.255 
06:30	23.6	23.6	23.6	81	18.6	0	0	---	0.00	30.255 
06:35	23.6	23.6	23.6	81	18.6	0	0	---	0.00	30.255 
06:40	23.6	23.6	23.6	81	18.6	0	0	---	0.00	30.254 
06:45	23.5	23.5	23.5	81	18.5	0	0	---	0.00	30.254 
06:50	23.3	23.3	23.3	81	18.3	0	0	---	0.00	30.253 
06:55	23.3	23.3	23.3	81	18.3	0	0	---	0.00	30.252 
07:00	23.3	23.3	23.3	81	18.3	0	0	---	0.00	30.250 
07:05	23.2	23.2	23.2	82	18.5	0	0	---	0.00	30.252 
07:10	23.0	23.0	23.0	82	18.3	0	0	---	0.00	30.247 
07:15	23.0	23.0	23.0	83	18.6	0	1	112	0.00	30.243 
07:20	23.3	23.3	23.3	83	18.9	0	1	112	0.00	30.241 
07:25	23.5	23.5	23.5	82	18.8	0	0	---	0.00	30.238 
07:30	23.6	23.6	23.6	82	18.9	0	0	---	0.00	30.240 
07:35	23.6	23.6	23.6	82	18.9	0	0	---	0.00	30.241 
07:40	23.8	23.8	23.8	82	19.1	0	0	---	0.00	30.241 
07:45	23.9	23.9	23.9	82	19.2	0	0	---	0.00	30.241 
07:50	24.1	24.1	24.1	82	19.4	0	0	---	0.00	30.240 
07:55	24.2	24.2	24.2	82	19.5	0	0	---	0.00	30.239 
08:00	24.5	24.5	24.5	81	19.5	0	0	---	0.00	30.239 
08:05	24.8	24.8	24.8	82	20.1	0	0	---	0.00	30.239 
08:10	25.4	25.4	25.4	81	20.4	0	1	112	0.00	30.240 
08:15	26.3	26.3	26.3	79	20.7	0	1	112	0.00	30.239 
08:20	27.2	27.2	27.2	78	21.3	0	0	---	0.00	30.238 
08:25	28.1	28.1	28.1	76	21.5	0	1	112	0.00	30.239 
08:30	29.1	29.1	29.1	74	21.9	0	1	112	0.00	30.235 
08:35	30.0	30.0	30.0	72	22.1	0	2	112	0.00	30.233 
08:40	30.7	30.7	30.7	71	22.4	0	1	112	0.00	30.232 
08:45	31.3	31.3	31.3	69	22.3	0	0	---	0.00	30.231 
08:50	31.6	31.6	31.6	68	22.3	0	1	112	0.00	30.232 
08:55	31.9	31.9	31.9	67	22.2	0	1	112	0.00	30.232 
09:00	32.7	32.7	32.7	66	22.6	0	1	112	0.00	30.227 
09:05	33.7	33.7	33.7	64	22.8	0	1	112	0.00	30.230 
09:10	34.9	34.9	34.9	60	22.4	1	2	112	0.00	30.228 
09:15	36.0	36.0	36.0	57	22.3	1	3	112	0.00	30.226 
09:20	37.0	37.0	37.0	56	22.8	1	3	112	0.00	30.225 
09:25	37.9	37.9	37.9	54	22.8	1	5	90	0.00	30.222 
09:30	38.6	38.6	38.6	53	23.0	2	5	90	0.01	30.224 
09:35	39.1	39.1	39.1	52	23.0	1	3	68	0.00	30.225 
09:40	39.6	39.6	39.6	51	23.0	1	3	270	0.00	30.225 
09:45	39.9	39.9	39.9	51	23.3	1	5	248	0.00	30.224 
09:50	40.3	40.3	40.3	50	23.2	1	4	270	0.00	30.221 
09:55	40.2	40.2	40.2	50	23.1	2	6	270	0.00	30.217 
10:00	40.3	40.3	40.3	52	24.1	0	6	248	0.00	30.217 
10:05	41.1	41.1	41.1	50	23.9	1	6	112	0.00	30.213 
10:10	41.6	41.6	41.6	50	24.4	1	7	112	0.00	30.209 
10:15	41.8	41.8	41.8	51	25.0	1	5	248	0.00	30.211 
10:20	42.3	42.3	42.3	50	25.0	1	5	90	0.00	30.210 
10:25	42.8	42.8	42.8	50	25.5	1	5	90	0.00	30.208 
10:30	43.1	43.1	43.1	49	25.3	1	3	248	0.00	30.208 
10:35	43.3	43.3	43.3	50	25.9	2	6	270	0.00	30.206 
10:40	43.6	43.6	43.6	50	26.2	2	5	225	0.00	30.204 
10:45	43.8	43.8	43.8	50	26.4	1	4	292	0.00	30.202 
10:50	44.1	44.1	44.1	51	27.1	2	5	248	0.00	30.203 
10:55	44.1	44.1	44.1	51	27.1	2	5	270	0.00	30.198 
11:00	44.1	44.1	44.1	52	27.6	2	5	248	0.00	30.197 
11:05	44.1	44.1	44.1	53	28.1	2	5	90	0.00	30.192 
11:10	44.3	44.3	44.3	54	28.7	1	5	90	0.00	30.191 
11:15	44.6	44.6	44.6	54	29.0	2	5	270	0.00	30.189 
11:20	44.9	44.9	44.9	54	29.3	2	6	248	0.00	30.187 
11:25	45.2	45.2	45.2	54	29.6	2	5	248	0.00	30.182 
11:30	45.5	45.5	45.5	54	29.8	1	6	270	0.00	30.175 
11:35	45.8	45.8	45.8	55	30.6	2	7	45	0.00	30.174 
11:40	46.1	46.1	46.1	55	30.8	2	6	68	0.00	30.172 
11:45	46.2	46.2	46.2	54	30.5	2	5	270	0.00	30.172 
11:50	46.5	46.5	46.5	56	31.7	1	5	112	0.00	30.172 
11:55	47.0	47.0	47.0	56	32.1	2	6	90	0.00	30.169 
12:00	47.3	47.3	47.3	53	31.0	3	10	90	0.01	30.163 
12:05	47.1	47.1	47.1	54	31.3	3	9	90	0.00	30.162 
12:10	47.0	47.0	47.0	55	31.7	2	5	68	0.00	30.158 
12:15	47.4	47.4	47.4	57	32.9	2	5	90	0.00	30.156 
12:20	47.7	47.7	47.7	56	32.8	2	6	112	0.00	30.153 
12:25	47.7	47.7	47.7	57	33.2	2	7	270	0.00	30.152 
12:30	48.0	48.0	48.0	57	33.5	2	9	22	0.00	30.148 
12:35	48.3	48.3	48.3	57	33.8	2	7	225	0.00	30.143 
12:40	48.6	48.6	48.6	55	33.2	3	9	248	0.00	30.142 
12:45	48.8	48.8	48.8	55	33.4	3	7	270	0.00	30.138 
12:50	49.4	49.4	49.4	56	34.4	3	10	248	0.00	30.137 
12:55	49.6	49.6	49.6	56	34.6	3	6	292	0.00	30.130 
13:00	50.1	50.1	50.1	54	34.1	2	6	248	0.00	30.125 
13:05	50.4	50.4	50.4	55	34.8	2	7	45	0.00	30.120 
13:10	50.5	50.5	50.5	54	34.5	3	10	112	0.00	30.112 
13:15	50.7	50.7	50.7	53	34.2	3	9	90	0.00	30.105 
13:20	50.4	50.4	50.4	54	34.4	3	11	68	0.00	30.102 
13:25	50.5	50.5	50.5	56	35.4	2	7	90	0.00	30.103 
13:30	50.4	50.4	50.4	54	34.4	3	11	248	0.00	30.099 
13:35	50.7	50.7	50.7	55	35.1	1	5	248	0.00	30.092 
13:40	51.0	51.0	51.0	54	34.9	3	9	90	0.00	30.087 
13:45	51.0	51.0	51.0	54	34.9	3	9	90	0.00	30.082 
13:50	51.0	51.0	51.0	55	35.4	2	6	270	0.00	30.081 
13:55	51.3	51.3	51.3	55	35.7	2	5	45	0.00	30.077 
14:00	51.6	51.6	51.6	54	35.5	2	7	270	0.00	30.074 
14:05	52.0	52.0	52.0	54	35.9	2	7	90	0.00	30.072 
14:10	52.2	52.2	52.2	52	35.1	2	5	270	0.00	30.070 
14:15	52.5	52.5	52.5	51	34.9	2	7	270	0.00	30.067 
14:20	52.8	52.8	52.8	51	35.2	2	5	90	0.00	30.066 
14:25	53.3	53.3	53.3	49	34.6	2	5	112	0.00	30.064 
14:30	53.9	53.9	53.9	47	34.1	3	9	90	0.00	30.057 
14:35	54.5	54.5	54.5	43	32.5	4	14	90	0.00	30.062 
14:40	54.8	54.8	54.8	43	32.7	3	10	270	0.00	30.063 
14:45	55.0	55.0	55.0	43	32.9	3	12	315	0.00	30.058 
14:50	54.8	54.8	54.8	42	32.2	3	12	270	0.00	30.060 
14:55	54.5	54.5	54.5	43	32.5	2	6	90	0.00	30.060 
15:00	53.9	53.9	53.9	42	31.3	2	6	270	0.00	30.054 
15:05	53.3	53.3	53.3	44	31.9	2	5	248	0.00	30.054 
15:10	53.2	53.2	53.2	44	31.9	2	10	270	0.00	30.054 
15:15	53.3	53.3	53.3	43	31.4	2	8	68	0.00	30.046 
15:20	53.8	53.8	53.8	45	33.0	2	5	90	0.00	30.043 
15:25	54.1	54.1	54.1	44	32.7	1	6	112	0.00	30.045 
15:30	53.9	53.9	53.9	44	32.5	1	5	225	0.00	30.043 
15:35	53.8	53.8	53.8	44	32.4	1	3	248	0.00	30.044 
15:40	53.9	53.9	53.9	43	31.9	2	9	292	0.00	30.040 
15:45	54.1	54.1	54.1	43	32.1	2	6	270	0.00	30.042 
15:50	54.1	54.1	54.1	41	30.9	4	10	248	0.00	30.046 
15:55	54.2	54.2	54.2	41	31.0	3	7	248	0.00	30.050 
16:00	54.2	54.2	54.2	42	31.6	3	7	248	0.00	30.052 
16:05	54.1	54.1	54.1	44	32.7	1	6	270	0.00	30.051 
16:10	53.9	53.9	53.9	45	33.1	1	6	248	0.00	30.045 
16:15	53.8	53.8	53.8	46	33.5	2	7	270	0.00	30.040 
16:20	53.9	53.9	53.9	45	33.1	2	5	248	0.00	30.039 
16:25	53.9	53.9	53.9	44	32.5	2	5	248	0.00	30.038 
16:30	53.6	53.6	53.6	46	33.3	1	4	270	0.00	30.039 
16:35	53.5	53.5	53.5	46	33.2	1	4	225	0.00	30.039 
16:40	53.3	53.3	53.3	47	33.6	1	3	225	0.00	30.041 
16:45	53.2	53.2	53.2	47	33.5	1	3	248	0.00	30.040 
16:50	53.1	53.1	53.1	48	33.9	1	3	248	0.00	30.040 
16:55	53.1	53.1	53.1	48	33.9	1	3	248	0.00	30.040 
17:00	53.1	53.1	53.1	49	34.4	1	3	248	0.00	30.039 
17:05	53.1	53.1	53.1	50	35.0	1	3	315	0.00	30.040 
17:10	52.9	52.9	52.9	50	34.8	1	3	315	0.00	30.040 
17:15	52.9	52.9	52.9	50	34.8	1	5	202	0.00	30.037 
17:20	52.9	52.9	52.9	50	34.8	1	4	68	0.00	30.037 
17:25	52.8	52.8	52.8	50	34.7	1	7	270	0.00	30.037 
17:30	52.8	52.8	52.8	52	35.7	1	4	135	0.00	30.033 
17:35	52.5	52.5	52.5	52	35.4	1	4	248	0.00	30.029 
17:40	52.2	52.2	52.2	53	35.6	1	2	22	0.00	30.028 
17:45	51.9	51.9	51.9	53	35.3	1	7	248	0.00	30.029 
17:50	51.7	51.7	51.7	52	34.6	1	4	248	0.00	30.029 
17:55	51.7	51.7	51.7	53	35.1	1	5	248	0.00	30.030 
18:00	51.6	51.6	51.6	54	35.5	1	6	225	0.00	30.029 
18:05	51.4	51.4	51.4	54	35.3	1	5	202	0.00	30.032 
18:10	51.3	51.3	51.3	54	35.2	1	4	112	0.00	30.035 
18:15	51.1	51.1	51.1	55	35.5	1	4	248	0.00	30.033 
18:20	51.0	51.0	51.0	55	35.4	0	2	248	0.00	30.035 
18:25	50.8	50.8	50.8	55	35.2	0	2	248	0.00	30.038 
18:30	50.7	50.7	50.7	56	35.6	1	3	248	0.00	30.040 
18:35	50.7	50.7	50.7	56	35.6	0	3	248	0.00	30.042 
18:40	50.5	50.5	50.5	56	35.4	1	4	248	0.00	30.043 
18:45	50.7	50.7	50.7	55	35.1	1	5	248	0.00	30.045 
18:50	50.5	50.5	50.5	56	35.4	0	2	248	0.00	30.045 
18:55	50.4	50.4	50.4	56	35.3	1	4	248	0.00	30.047 
19:00	50.4	50.4	50.4	57	35.7	1	3	248	0.00	30.053 
19:05	50.4	50.4	50.4	56	35.3	1	5	248	0.00	30.054 
19:10	50.4	50.4	50.4	56	35.3	0	2	248	0.00	30.057 
19:15	50.2	50.2	50.2	56	35.1	1	3	248	0.00	30.059 
19:20	50.2	50.2	50.2	56	35.1	1	5	248	0.00	30.060 
19:25	50.2	50.2	50.2	57	35.6	1	3	248	0.00	30.060 
19:30	50.2	50.2	50.2	56	35.1	1	5	248	0.00	30.061 
19:35	50.2	50.2	50.2	57	35.6	2	7	248	0.00	30.061 
19:40	50.2	50.2	50.2	56	35.1	2	4	248	0.00	30.061 
19:45	50.2	50.2	50.2	57	35.6	1	4	248	0.00	30.064 
19:50	50.1	50.1	50.1	57	35.5	1	3	248	0.00	30.066 
19:55	49.9	49.9	49.9	57	35.3	1	3	248	0.00	30.069 
20:00	49.9	49.9	49.9	58	35.7	1	5	225	0.00	30.071 
20:05	49.9	49.9	49.9	58	35.7	2	9	248	0.00	30.066 
20:10	49.9	49.9	49.9	58	35.7	2	5	248	0.00	30.066 
20:15	49.9	49.9	49.9	58	35.7	2	5	248	0.00	30.067 
20:20	49.8	49.8	49.8	58	35.6	1	5	248	0.00	30.067 
20:25	49.8	49.8	49.8	58	35.6	0	3	248	0.00	30.067 
20:30	49.6	49.6	49.6	58	35.4	0	2	248	0.00	30.068 
20:35	49.4	49.4	49.4	59	35.7	0	2	248	0.00	30.068 
20:40	49.1	49.1	49.1	59	35.4	0	3	248	0.00	30.068 
20:45	48.8	48.8	48.8	60	35.5	0	1	248	0.00	30.069 
20:50	48.5	48.5	48.5	60	35.3	0	2	248	0.00	30.069 
20:55	48.2	48.2	48.2	61	35.4	0	2	248	0.00	30.071 
21:00	47.9	47.9	47.9	62	35.5	0	1	248	0.00	30.070 
21:05	47.3	47.3	47.3	62	34.9	0	1	248	0.00	30.063 
21:10	47.0	47.0	47.0	63	35.1	0	1	248	0.00	30.066 
21:15	46.5	46.5	46.5	64	35.0	0	0	---	0.00	30.066 
21:20	46.1	46.1	46.1	65	35.0	0	1	248	0.00	30.066 
21:25	45.8	45.8	45.8	66	35.1	0	1	248	0.00	30.066 
21:30	45.5	45.5	45.5	66	34.8	0	1	248	0.00	30.067 
21:35	45.1	45.1	45.1	67	34.8	0	1	248	0.00	30.070 
21:40	45.1	45.1	45.1	69	35.5	0	1	248	0.00	30.074 
21:45	45.2	45.2	45.2	69	35.6	0	1	248	0.00	30.075 
21:50	45.2	45.2	45.2	71	36.4	0	3	248	0.00	30.076 
21:55	45.2	45.2	45.2	71	36.4	0	2	248	0.00	30.080 
22:00	45.2	45.2	45.2	72	36.7	0	2	248	0.00	30.081 
22:05	45.4	45.4	45.4	74	37.6	1	3	248	0.00	30.079 
22:10	45.5	45.5	45.5	76	38.4	1	4	248	0.00	30.079 
22:15	45.8	45.8	45.8	77	39.0	1	3	248	0.00	30.077 
22:20	46.2	46.2	46.2	79	40.1	2	6	248	0.00	30.078 
22:25	46.5	46.5	46.5	79	40.3	1	4	248	0.00	30.078 
22:30	46.7	46.7	46.7	79	40.5	1	5	248	0.00	30.078 
22:35	46.7	46.7	46.7	80	40.9	2	5	248	0.00	30.078 
22:40	46.8	46.8	46.8	81	41.3	1	5	248	0.00	30.079 
22:45	46.8	46.8	46.8	81	41.3	1	3	248	0.00	30.081 
22:50	46.7	46.7	46.7	81	41.2	1	5	270	0.00	30.082 
22:55	46.8	46.8	46.8	81	41.3	2	6	248	0.00	30.083 
23:00	46.8	46.8	46.8	81	41.3	2	7	248	0.00	30.085 
23:05	46.8	46.8	46.8	81	41.3	2	5	248	0.00	30.084 
23:10	46.8	46.8	46.8	81	41.3	1	5	248	0.00	30.085 
23:15	46.5	46.5	46.5	81	41.0	1	6	248	0.00	30.084 
23:20	46.2	46.2	46.2	82	41.0	1	4	248	0.00	30.088 
23:25	46.1	46.1	46.1	82	40.9	1	3	248	0.00	30.090 
23:30	45.8	45.8	45.8	83	40.9	0	3	248	0.00	30.091 
23:35	45.7	45.7	45.7	84	41.1	0	2	248	0.00	30.092 
23:40	45.5	45.5	45.5	84	41.0	1	4	248	0.00	30.092 
23:45	45.4	45.4	45.4	84	40.9	1	3	248	0.00	30.093 
23:50	45.2	45.2	45.2	85	41.0	1	3	248	0.00	30.093 
23:55	45.1	45.1	45.1	85	40.9	1	3	248	0.00	30.097 

CoCoRaHS
IN-AL-39
A2 Web Hosting
Creative Commons License
GoDaddy
search engine by freefind advanced

loaded 2018-11-20 02:49:25 • last modified 2010-11-18 10:43:29
Privacy PolicyDisclaimer
• wx.awcolley.com is powered by PmWiki v.2002016 •
• all content (unless otherwise noted) © 2018 A W Colley